Nearby METAR Reports

Aktualna pogoda na lotniskach (dane METAR)

 

EPGD - Gdansk/Rebiechow, Poland
Distance from station: ENE 27mi, 44km
Updated: Thu, 08-Dec-2022 5:00pm PST
Freezing fog, Overcast
Freezing fog, Overcast
 Wind from W
Wind: W 5 mph , 7 km/h
Temperature: 25°F , -4°C
Wind Chill: 19°F , -7°C
Dew Point: 23°F , -5°C
Humidity: 93%
Barometer: 29.74 inHg , 1007 hPa
Summary: Freezing Fog
Clouds: Overcast
Visibility: 0 mile , 0 km
Cloud details: Overcast 100 ft
2022/12/09 01:00 EPGD 090100Z 28004KT 0150 R29/0600N FZFG OVC001 M04/M05 Q1007
EPSC - Szczecin/Golenio, Poland
Distance from station: WSW 128mi, 205km
Updated: Thu, 08-Dec-2022 5:00pm PST
Overcast
Overcast
 Wind from W
Wind: W 5 mph , 7 km/h
Temperature: 32°F , 0°C
Wind Chill: 27°F , -3°C
Dew Point: 30°F , -1°C
Humidity: 93%
Barometer: 29.74 inHg , 1007 hPa
Clouds: Overcast
Visibility: 6 miles , 10 km
Cloud details: Few Clouds 300 ft
Partly Cloudy 800 ft
Overcast 1000 ft
2022/12/09 01:00 EPSC 090100Z 27004KT 9999 FEW003 SCT008 OVC010 M00/M01 Q1007
 
EPPO - Poznan/Lawica, Poland
Distance from station: SSW 131mi, 210km
Updated: Thu, 08-Dec-2022 5:00pm PST
Mist, Overcast
Mist, Overcast
 Wind from WSW
Wind: WSW 3 mph , 6 km/h
Temperature: 34°F , 1°C
Dew Point: 34°F , 1°C
Humidity: 100%
Barometer: 29.77 inHg , 1008 hPa
Summary: Mist
Clouds: Overcast
Visibility: 3 miles , 5 km
Cloud details: Mostly Cloudy 300 ft
Overcast 1500 ft
2022/12/09 01:00 EPPO 090100Z 25003KT 4600 BR BKN003 OVC015 01/01 Q1008
EPLL - Lodz/Lublinek, Poland
Distance from station: SSE 184mi, 296km
Updated: Thu, 08-Dec-2022 5:00pm PST
Mist, Few clouds
Mist, Few clouds
 Wind from varies
Wind: varies 2 mph , 4 km/h
Temperature: 30°F , -1°C
Dew Point: 28°F , -2°C
Humidity: 93%
Barometer: 29.77 inHg , 1008 hPa
Summary: Mist
Clouds: Few Clouds
Visibility: 3 miles , 5 km
Cloud details: Few Clouds 4700 ft
2022/12/09 01:00 EPLL 090100Z VRB02KT 5000 BR FEW047 M01/M02 Q1008
 
EPWA - Warsaw/Okecie, Poland
Distance from station: SE 191mi, 307km
Updated: Thu, 08-Dec-2022 5:00pm PST
Partly Cloudy
Partly Cloudy
 Wind from SSE
Wind: SSE 6 mph , 9 km/h
Temperature: 28°F , -2°C
Wind Chill: 21°F , -6°C
Dew Point: 28°F , -2°C
Humidity: 100%
Barometer: 29.8 inHg , 1009 hPa
Clouds: Partly Cloudy
Visibility: 4 miles , 7 km
2022/12/09 01:00 EPWA 090100Z 16005KT 7000 NSC M02/M02 Q1009 NOSIG
EPWR - Wroclaw/Strachow, Poland
Distance from station: S 219mi, 352km
Updated: Thu, 08-Dec-2022 5:00pm PST
Clear
Clear
 Wind from S
Wind: S 6 mph , 9 km/h
Temperature: 34°F , 1°C
Wind Chill: 29°F , -2°C
Dew Point: 28°F , -2°C
Humidity: 81%
Barometer: 29.77 inHg , 1008 hPa
Summary: Clear
Visibility: greater than 7 miles , 10 km
2022/12/09 01:00 EPWR 090100Z 18005KT 120V200 CAVOK 01/M02 Q1008

Metar display script from Saratoga-Weather.org